sensor_id;sensor_type;location;lat;lon;timestamp;pressure;altitude;pressure_sealevel;temperature;humidity
57628;BME280;43451;49.060;10.616;2023-02-03T00:01:20;97763.56;;;3.24;100.00
57628;BME280;43451;49.060;10.616;2023-02-03T00:03:45;97766.72;;;3.35;100.00
57628;BME280;43451;49.060;10.616;2023-02-03T00:06:10;97757.38;;;3.50;100.00
57628;BME280;43451;49.060;10.616;2023-02-03T00:08:37;97766.84;;;3.39;100.00
57628;BME280;43451;49.060;10.616;2023-02-03T00:11:02;97770.03;;;3.41;100.00
57628;BME280;43451;49.060;10.616;2023-02-03T00:13:28;97767.47;;;3.53;100.00
57628;BME280;43451;49.060;10.616;2023-02-03T00:15:53;97771.94;;;3.40;100.00
57628;BME280;43451;49.060;10.616;2023-02-03T00:18:19;97773.00;;;3.48;100.00
57628;BME280;43451;49.060;10.616;2023-02-03T00:20:44;97778.22;;;3.36;100.00
57628;BME280;43451;49.060;10.616;2023-02-03T00:23:10;97773.50;;;3.33;100.00
57628;BME280;43451;49.060;10.616;2023-02-03T00:25:37;97782.03;;;3.26;100.00
57628;BME280;43451;49.060;10.616;2023-02-03T00:28:03;97783.94;;;3.25;100.00
57628;BME280;43451;49.060;10.616;2023-02-03T00:30:29;97784.25;;;3.33;100.00
57628;BME280;43451;49.060;10.616;2023-02-03T00:32:55;97783.63;;;3.18;100.00
57628;BME280;43451;49.060;10.616;2023-02-03T00:35:20;97787.25;;;3.22;100.00
57628;BME280;43451;49.060;10.616;2023-02-03T00:37:50;97790.41;;;3.24;100.00
57628;BME280;43451;49.060;10.616;2023-02-03T00:40:16;97798.16;;;3.17;100.00
57628;BME280;43451;49.060;10.616;2023-02-03T00:42:42;97778.59;;;3.08;100.00
57628;BME280;43451;49.060;10.616;2023-02-03T00:45:07;97773.84;;;3.05;100.00
57628;BME280;43451;49.060;10.616;2023-02-03T00:47:33;97780.94;;;3.10;100.00
57628;BME280;43451;49.060;10.616;2023-02-03T00:49:58;97772.88;;;3.18;100.00
57628;BME280;43451;49.060;10.616;2023-02-03T00:52:24;97764.84;;;3.18;100.00
57628;BME280;43451;49.060;10.616;2023-02-03T00:54:49;97777.94;;;3.11;100.00
57628;BME280;43451;49.060;10.616;2023-02-03T00:57:14;97776.66;;;3.26;100.00
57628;BME280;43451;49.060;10.616;2023-02-03T00:59:40;97782.84;;;3.18;100.00
57628;BME280;43451;49.060;10.616;2023-02-03T01:02:05;97775.72;;;3.13;100.00
57628;BME280;43451;49.060;10.616;2023-02-03T01:04:31;97782.84;;;3.09;100.00
57628;BME280;43451;49.060;10.616;2023-02-03T01:06:56;97785.84;;;3.16;100.00
57628;BME280;43451;49.060;10.616;2023-02-03T01:09:24;97776.34;;;3.10;100.00
57628;BME280;43451;49.060;10.616;2023-02-03T01:11:49;97777.47;;;3.09;100.00
57628;BME280;43451;49.060;10.616;2023-02-03T01:14:14;97783.16;;;3.08;100.00
57628;BME280;43451;49.060;10.616;2023-02-03T01:16:40;97792.16;;;3.03;100.00
57628;BME280;43451;49.060;10.616;2023-02-03T01:19:05;97788.66;;;3.20;100.00
57628;BME280;43451;49.060;10.616;2023-02-03T01:21:31;97794.50;;;3.13;100.00
57628;BME280;43451;49.060;10.616;2023-02-03T01:23:58;97785.84;;;3.16;100.00
57628;BME280;43451;49.060;10.616;2023-02-03T01:26:24;97784.88;;;3.12;100.00
57628;BME280;43451;49.060;10.616;2023-02-03T01:28:55;97780.63;;;3.20;100.00
57628;BME280;43451;49.060;10.616;2023-02-03T01:31:24;97780.47;;;3.16;100.00
57628;BME280;43451;49.060;10.616;2023-02-03T01:33:51;97783.00;;;3.21;100.00
57628;BME280;43451;49.060;10.616;2023-02-03T01:36:19;97778.56;;;3.25;100.00
57628;BME280;43451;49.060;10.616;2023-02-03T01:38:45;97774.28;;;3.51;100.00
57628;BME280;43451;49.060;10.616;2023-02-03T01:41:13;97781.56;;;3.50;100.00
57628;BME280;43451;49.060;10.616;2023-02-03T01:43:41;97774.47;;;3.37;100.00
57628;BME280;43451;49.060;10.616;2023-02-03T01:49:05;97776.03;;;3.38;100.00
57628;BME280;43451;49.060;10.616;2023-02-03T01:51:32;97764.81;;;3.44;100.00
57628;BME280;43451;49.060;10.616;2023-02-03T01:53:57;97766.72;;;3.35;100.00
57628;BME280;43451;49.060;10.616;2023-02-03T01:56:27;97765.13;;;3.34;100.00
57628;BME280;43451;49.060;10.616;2023-02-03T01:58:56;97759.44;;;3.44;100.00
57628;BME280;43451;49.060;10.616;2023-02-03T02:01:24;97767.63;;;3.39;100.00
57628;BME280;43451;49.060;10.616;2023-02-03T02:03:56;97757.22;;;3.29;100.00
57628;BME280;43451;49.060;10.616;2023-02-03T02:06:23;97753.28;;;3.44;100.00
57628;BME280;43451;49.060;10.616;2023-02-03T02:08:50;97742.09;;;3.33;100.00
57628;BME280;43451;49.060;10.616;2023-02-03T02:11:17;97743.47;;;3.48;100.00
57628;BME280;43451;49.060;10.616;2023-02-03T02:13:46;97747.91;;;3.53;100.00
57628;BME280;43451;49.060;10.616;2023-02-03T02:38:40;97712.00;;;3.48;100.00
57628;BME280;43451;49.060;10.616;2023-02-03T02:43:43;97709.44;;;3.69;100.00
57628;BME280;43451;49.060;10.616;2023-02-03T02:46:23;97701.19;;;3.75;100.00
57628;BME280;43451;49.060;10.616;2023-02-03T02:49:00;97693.09;;;3.83;100.00
57628;BME280;43451;49.060;10.616;2023-02-03T02:51:28;97703.13;;;3.65;100.00
57628;BME280;43451;49.060;10.616;2023-02-03T02:53:58;97703.78;;;3.62;100.00
57628;BME280;43451;49.060;10.616;2023-02-03T02:56:24;97707.09;;;3.59;100.00
57628;BME280;43451;49.060;10.616;2023-02-03T02:58:52;97717.78;;;3.77;100.00
57628;BME280;43451;49.060;10.616;2023-02-03T03:01:19;97728.94;;;3.49;100.00
57628;BME280;43451;49.060;10.616;2023-02-03T03:03:44;97718.34;;;3.53;100.00
57628;BME280;43451;49.060;10.616;2023-02-03T03:06:18;97718.91;;;3.67;100.00
57628;BME280;43451;49.060;10.616;2023-02-03T03:08:56;97729.09;;;3.53;100.00
57628;BME280;43451;49.060;10.616;2023-02-03T03:11:25;97717.06;;;3.59;100.00
57628;BME280;43451;49.060;10.616;2023-02-03T03:13:53;97710.44;;;3.47;100.00
57628;BME280;43451;49.060;10.616;2023-02-03T03:16:23;97699.91;;;3.34;100.00
57628;BME280;43451;49.060;10.616;2023-02-03T03:19:03;97713.78;;;3.36;100.00
57628;BME280;43451;49.060;10.616;2023-02-03T03:21:40;97711.56;;;3.38;100.00
57628;BME280;43451;49.060;10.616;2023-02-03T03:24:09;97706.13;;;3.55;100.00
57628;BME280;43451;49.060;10.616;2023-02-03T03:26:40;97705.50;;;3.58;100.00
57628;BME280;43451;49.060;10.616;2023-02-03T03:29:30;97725.78;;;3.47;100.00
57628;BME280;43451;49.060;10.616;2023-02-03T03:32:00;97728.31;;;3.52;100.00
57628;BME280;43451;49.060;10.616;2023-02-03T03:34:27;97729.09;;;3.53;100.00
57628;BME280;43451;49.060;10.616;2023-02-03T03:37:02;97735.38;;;3.57;100.00
57628;BME280;43451;49.060;10.616;2023-02-03T03:39:45;97731.72;;;3.61;100.00
57628;BME280;43451;49.060;10.616;2023-02-03T03:42:22;97731.25;;;3.68;100.00
57628;BME280;43451;49.060;10.616;2023-02-03T03:44:56;97727.19;;;3.53;100.00
57628;BME280;43451;49.060;10.616;2023-02-03T03:47:46;97736.47;;;3.64;100.00
57628;BME280;43451;49.060;10.616;2023-02-03T03:50:18;97732.44;;;3.41;100.00
57628;BME280;43451;49.060;10.616;2023-02-03T03:52:46;97739.69;;;3.49;100.00
57628;BME280;43451;49.060;10.616;2023-02-03T03:55:16;97740.97;;;3.43;100.00
57628;BME280;43451;49.060;10.616;2023-02-03T03:58:00;97739.50;;;3.45;100.00
57628;BME280;43451;49.060;10.616;2023-02-03T04:00:30;97745.81;;;3.58;100.00
57628;BME280;43451;49.060;10.616;2023-02-03T04:02:59;97741.91;;;3.47;100.00
57628;BME280;43451;49.060;10.616;2023-02-03T04:05:26;97751.38;;;3.53;100.00
57628;BME280;43451;49.060;10.616;2023-02-03T04:07:52;97752.34;;;3.40;100.00
57628;BME280;43451;49.060;10.616;2023-02-03T04:12:49;97742.16;;;3.63;100.00
57628;BME280;43451;49.060;10.616;2023-02-03T04:15:15;97732.41;;;3.49;100.00
57628;BME280;43451;49.060;10.616;2023-02-03T04:17:40;97742.16;;;3.63;100.00
57628;BME280;43451;49.060;10.616;2023-02-03T04:20:06;97724.78;;;3.60;100.00
57628;BME280;43451;49.060;10.616;2023-02-03T04:22:31;97735.88;;;3.59;100.00
57628;BME280;43451;49.060;10.616;2023-02-03T04:24:57;97731.09;;;3.64;100.00
57628;BME280;43451;49.060;10.616;2023-02-03T04:27:26;97712.91;;;3.61;100.00
57628;BME280;43451;49.060;10.616;2023-02-03T04:29:52;97726.34;;;3.61;100.00
57628;BME280;43451;49.060;10.616;2023-02-03T04:32:17;97724.28;;;3.67;100.00
57628;BME280;43451;49.060;10.616;2023-02-03T04:34:44;97718.56;;;3.77;100.00
57628;BME280;43451;49.060;10.616;2023-02-03T04:37:09;97711.84;;;3.62;100.00
57628;BME280;43451;49.060;10.616;2023-02-03T04:39:34;97718.84;;;3.46;100.00
57628;BME280;43451;49.060;10.616;2023-02-03T04:42:00;97719.13;;;3.53;100.00
57628;BME280;43451;49.060;10.616;2023-02-03T04:44:25;97718.94;;;3.58;100.00
57628;BME280;43451;49.060;10.616;2023-02-03T04:46:51;97726.34;;;3.61;100.00
57628;BME280;43451;49.060;10.616;2023-02-03T04:49:16;97721.94;;;3.65;100.00
57628;BME280;43451;49.060;10.616;2023-02-03T04:51:42;97712.91;;;3.61;100.00
57628;BME280;43451;49.060;10.616;2023-02-03T04:54:09;97707.38;;;3.66;100.00
57628;BME280;43451;49.060;10.616;2023-02-03T04:56:35;97699.31;;;3.75;100.00
57628;BME280;43451;49.060;10.616;2023-02-03T04:59:01;97698.84;;;3.64;100.00
57628;BME280;43451;49.060;10.616;2023-02-03T05:01:26;97697.56;;;3.70;100.00
57628;BME280;43451;49.060;10.616;2023-02-03T05:03:52;97690.22;;;3.50;100.00
57628;BME280;43451;49.060;10.616;2023-02-03T05:06:21;97700.44;;;3.65;100.00
57628;BME280;43451;49.060;10.616;2023-02-03T05:08:47;97693.19;;;3.57;100.00
57628;BME280;43451;49.060;10.616;2023-02-03T05:11:12;97692.53;;;3.60;100.00
57628;BME280;43451;49.060;10.616;2023-02-03T05:13:38;97700.44;;;3.65;100.00
57628;BME280;43451;49.060;10.616;2023-02-03T05:16:04;97708.31;;;3.70;100.00
57628;BME280;43451;49.060;10.616;2023-02-03T05:18:29;97693.78;;;3.71;100.00
57628;BME280;43451;49.060;10.616;2023-02-03T05:20:54;97697.00;;;3.56;100.00
57628;BME280;43451;49.060;10.616;2023-02-03T05:23:20;97677.72;;;3.54;100.00
57628;BME280;43451;49.060;10.616;2023-02-03T05:25:46;97703.16;;;3.57;100.00
57628;BME280;43451;49.060;10.616;2023-02-03T05:28:11;97710.91;;;3.49;100.00
57628;BME280;43451;49.060;10.616;2023-02-03T05:30:37;97714.59;;;3.36;100.00
57628;BME280;43451;49.060;10.616;2023-02-03T05:33:02;97730.03;;;3.39;100.00
57628;BME280;43451;49.060;10.616;2023-02-03T05:35:27;97715.66;;;3.44;100.00
57628;BME280;43451;49.060;10.616;2023-02-03T05:37:53;97722.22;;;3.72;100.00
57628;BME280;43451;49.060;10.616;2023-02-03T05:40:18;97717.69;;;3.56;100.00
57628;BME280;43451;49.060;10.616;2023-02-03T05:43:02;97711.94;;;3.75;100.00
57628;BME280;43451;49.060;10.616;2023-02-03T05:45:28;97716.34;;;3.79;100.00
57628;BME280;43451;49.060;10.616;2023-02-03T05:47:53;97700.88;;;3.76;100.00
57628;BME280;43451;49.060;10.616;2023-02-03T05:50:19;97708.63;;;3.78;100.00
57628;BME280;43451;49.060;10.616;2023-02-03T05:52:44;97703.25;;;3.78;100.00
57628;BME280;43451;49.060;10.616;2023-02-03T05:55:09;97713.69;;;3.70;100.00
57628;BME280;43451;49.060;10.616;2023-02-03T05:57:35;97727.00;;;3.58;100.00
57628;BME280;43451;49.060;10.616;2023-02-03T06:00:00;97745.50;;;3.60;100.00
57628;BME280;43451;49.060;10.616;2023-02-03T06:02:26;97741.50;;;3.75;100.00
57628;BME280;43451;49.060;10.616;2023-02-03T06:04:51;97744.50;;;3.82;100.00
57628;BME280;43451;49.060;10.616;2023-02-03T06:07:16;97736.09;;;3.83;100.00
57628;BME280;43451;49.060;10.616;2023-02-03T06:09:42;97735.03;;;3.76;100.00
57628;BME280;43451;49.060;10.616;2023-02-03T06:12:07;97726.59;;;3.86;100.00
57628;BME280;43451;49.060;10.616;2023-02-03T06:14:33;97734.25;;;3.66;100.00
57628;BME280;43451;49.060;10.616;2023-02-03T06:16:58;97742.00;;;3.68;100.00
57628;BME280;43451;49.060;10.616;2023-02-03T06:19:24;97751.78;;;3.81;100.00
57628;BME280;43451;49.060;10.616;2023-02-03T06:21:49;97741.69;;;3.69;100.00
57628;BME280;43451;49.060;10.616;2023-02-03T06:24:14;97717.34;;;3.66;100.00
57628;BME280;43451;49.060;10.616;2023-02-03T06:26:40;97697.22;;;3.81;100.00
57628;BME280;43451;49.060;10.616;2023-02-03T06:29:05;97685.16;;;3.87;100.00
57628;BME280;43451;49.060;10.616;2023-02-03T06:31:31;97696.59;;;3.84;100.00
57628;BME280;43451;49.060;10.616;2023-02-03T06:33:56;97694.34;;;3.86;100.00
57628;BME280;43451;49.060;10.616;2023-02-03T06:36:22;97694.34;;;3.86;100.00
57628;BME280;43451;49.060;10.616;2023-02-03T06:38:47;97683.59;;;3.86;100.00
57628;BME280;43451;49.060;10.616;2023-02-03T06:41:13;97685.91;;;3.96;100.00
57628;BME280;43451;49.060;10.616;2023-02-03T06:43:38;97689.22;;;4.02;100.00
57628;BME280;43451;49.060;10.616;2023-02-03T06:46:04;97681.44;;;3.70;100.00
57628;BME280;43451;49.060;10.616;2023-02-03T06:48:29;97681.94;;;4.02;100.00
57628;BME280;43451;49.060;10.616;2023-02-03T06:50:55;97664.09;;;3.98;100.00
57628;BME280;43451;49.060;10.616;2023-02-03T06:53:20;97668.03;;;4.00;100.00
57628;BME280;43451;49.060;10.616;2023-02-03T06:55:46;97667.59;;;3.89;100.00
57628;BME280;43451;49.060;10.616;2023-02-03T06:58:12;97677.28;;;3.82;100.00
57628;BME280;43451;49.060;10.616;2023-02-03T07:00:37;97684.16;;;4.00;100.00
57628;BME280;43451;49.060;10.616;2023-02-03T07:03:03;97667.28;;;3.91;100.00
57628;BME280;43451;49.060;10.616;2023-02-03T07:05:28;97672.84;;;3.86;100.00
57628;BME280;43451;49.060;10.616;2023-02-03T07:07:54;97685.84;;;3.84;100.00
57628;BME280;43451;49.060;10.616;2023-02-03T07:10:19;97685.03;;;3.83;100.00
57628;BME280;43451;49.060;10.616;2023-02-03T07:12:45;97674.59;;;3.82;100.00
57628;BME280;43451;49.060;10.616;2023-02-03T07:15:11;97675.13;;;3.75;100.00
57628;BME280;43451;49.060;10.616;2023-02-03T07:17:37;97681.00;;;3.68;100.00
57628;BME280;43451;49.060;10.616;2023-02-03T07:20:03;97688.84;;;3.73;100.00
57628;BME280;43451;49.060;10.616;2023-02-03T07:22:29;97683.19;;;3.75;100.00
57628;BME280;43451;49.060;10.616;2023-02-03T07:24:54;97676.06;;;3.70;100.00
57628;BME280;43451;49.060;10.616;2023-02-03T07:27:19;97683.69;;;3.68;100.00
57628;BME280;43451;49.060;10.616;2023-02-03T07:29:45;97696.47;;;3.71;100.00
57628;BME280;43451;49.060;10.616;2023-02-03T07:32:10;97686.00;;;3.79;100.00
57628;BME280;43451;49.060;10.616;2023-02-03T07:34:36;97682.84;;;3.77;100.00
57628;BME280;43451;49.060;10.616;2023-02-03T07:37:01;97689.06;;;3.68;100.00
57628;BME280;43451;49.060;10.616;2023-02-03T07:39:26;97704.66;;;3.84;100.00
57628;BME280;43451;49.060;10.616;2023-02-03T07:41:52;97691.66;;;3.86;100.00
57628;BME280;43451;49.060;10.616;2023-02-03T07:44:17;97709.53;;;3.82;100.00
57628;BME280;43451;49.060;10.616;2023-02-03T07:46:43;97699.06;;;3.89;100.00
57628;BME280;43451;49.060;10.616;2023-02-03T07:49:13;97692.56;;;3.90;100.00
57628;BME280;43451;49.060;10.616;2023-02-03T07:51:38;97703.44;;;4.02;100.00
57628;BME280;43451;49.060;10.616;2023-02-03T07:54:05;97708.22;;;3.97;100.00
57628;BME280;43451;49.060;10.616;2023-02-03T07:56:31;97714.19;;;4.02;100.00
57628;BME280;43451;49.060;10.616;2023-02-03T07:58:57;97725.66;;;4.20;100.00
57628;BME280;43451;49.060;10.616;2023-02-03T08:01:23;97725.19;;;4.18;100.00
57628;BME280;43451;49.060;10.616;2023-02-03T08:03:48;97731.31;;;3.98;100.00
57628;BME280;43451;49.060;10.616;2023-02-03T08:06:15;97729.88;;;4.00;100.00
57628;BME280;43451;49.060;10.616;2023-02-03T08:08:40;97713.75;;;4.00;100.00
57628;BME280;43451;49.060;10.616;2023-02-03T08:11:06;97722.91;;;3.99;100.00
57628;BME280;43451;49.060;10.616;2023-02-03T08:13:32;97716.13;;;3.93;100.00
57628;BME280;43451;49.060;10.616;2023-02-03T08:15:57;97726.31;;;3.79;100.00
57628;BME280;43451;49.060;10.616;2023-02-03T08:18:23;97723.38;;;4.01;100.00
57628;BME280;43451;49.060;10.616;2023-02-03T08:20:49;97717.06;;;3.97;100.00
57628;BME280;43451;49.060;10.616;2023-02-03T08:23:14;97709.97;;;3.92;100.00
57628;BME280;43451;49.060;10.616;2023-02-03T08:25:40;97703.31;;;3.99;100.00
57628;BME280;43451;49.060;10.616;2023-02-03T08:28:05;97698.66;;;4.08;100.00
57628;BME280;43451;49.060;10.616;2023-02-03T08:30:30;97707.84;;;4.07;100.00
57628;BME280;43451;49.060;10.616;2023-02-03T08:32:57;97693.28;;;4.08;100.00
57628;BME280;43451;49.060;10.616;2023-02-03T08:35:23;97692.59;;;4.19;100.00
57628;BME280;43451;49.060;10.616;2023-02-03T08:37:49;97697.72;;;4.12;100.00
57628;BME280;43451;49.060;10.616;2023-02-03T08:40:14;97705.28;;;4.19;100.00
57628;BME280;43451;49.060;10.616;2023-02-03T08:42:39;97708.25;;;4.17;100.00
57628;BME280;43451;49.060;10.616;2023-02-03T08:45:05;97705.28;;;4.19;100.00
57628;BME280;43451;49.060;10.616;2023-02-03T08:47:31;97706.44;;;4.09;100.00
57628;BME280;43451;49.060;10.616;2023-02-03T08:49:56;97709.91;;;4.10;100.00
57628;BME280;43451;49.060;10.616;2023-02-03T08:52:22;97702.72;;;4.23;100.00
57628;BME280;43451;49.060;10.616;2023-02-03T08:54:48;97697.19;;;4.19;100.00
57628;BME280;43451;49.060;10.616;2023-02-03T08:57:13;97696.03;;;4.29;100.00
57628;BME280;43451;49.060;10.616;2023-02-03T08:59:41;97704.09;;;4.29;100.00
57628;BME280;43451;49.060;10.616;2023-02-03T09:02:12;97689.25;;;4.23;100.00
57628;BME280;43451;49.060;10.616;2023-02-03T09:04:38;97683.16;;;4.13;100.00
57628;BME280;43451;49.060;10.616;2023-02-03T09:07:04;97709.47;;;3.99;100.00
57628;BME280;43451;49.060;10.616;2023-02-03T09:09:30;97726.22;;;3.96;100.00
57628;BME280;43451;49.060;10.616;2023-02-03T09:11:56;97715.41;;;4.13;100.00
57628;BME280;43451;49.060;10.616;2023-02-03T09:14:27;97700.41;;;4.12;100.00
57628;BME280;43451;49.060;10.616;2023-02-03T09:16:53;97700.28;;;4.30;100.00
57628;BME280;43451;49.060;10.616;2023-02-03T09:19:19;97710.13;;;4.26;100.00
57628;BME280;43451;49.060;10.616;2023-02-03T09:21:44;97701.06;;;4.30;100.00
57628;BME280;43451;49.060;10.616;2023-02-03T09:24:12;97701.56;;;4.32;100.00
57628;BME280;43451;49.060;10.616;2023-02-03T09:26:37;97708.75;;;4.19;100.00
57628;BME280;43451;49.060;10.616;2023-02-03T09:29:02;97715.31;;;4.31;100.00
57628;BME280;43451;49.060;10.616;2023-02-03T09:31:28;97703.66;;;4.48;100.00
57628;BME280;43451;49.060;10.616;2023-02-03T09:33:54;97701.22;;;4.34;100.00
57628;BME280;43451;49.060;10.616;2023-02-03T09:36:19;97702.59;;;4.40;100.00
57628;BME280;43451;49.060;10.616;2023-02-03T09:38:44;97705.25;;;4.49;100.00
57628;BME280;43451;49.060;10.616;2023-02-03T09:44:06;97703.03;;;4.51;100.00
57628;BME280;43451;49.060;10.616;2023-02-03T09:46:42;97686.00;;;4.38;100.00
57628;BME280;43451;49.060;10.616;2023-02-03T09:52:20;97724.50;;;4.30;100.00
57628;BME280;43451;49.060;10.616;2023-02-03T09:57:27;97714.47;;;4.39;100.00
57628;BME280;43451;49.060;10.616;2023-02-03T09:59:56;97707.72;;;4.33;100.00
57628;BME280;43451;49.060;10.616;2023-02-03T10:10:37;97708.44;;;4.63;100.00
57628;BME280;43451;49.060;10.616;2023-02-03T10:13:14;97704.31;;;4.45;100.00
57628;BME280;43451;49.060;10.616;2023-02-03T10:18:27;97715.59;;;4.38;100.00
57628;BME280;43451;49.060;10.616;2023-02-03T10:21:02;97703.72;;;4.39;100.00
57628;BME280;43451;49.060;10.616;2023-02-03T10:23:32;97708.97;;;4.35;100.00
57628;BME280;43451;49.060;10.616;2023-02-03T10:26:00;97692.19;;;4.38;100.00
57628;BME280;43451;49.060;10.616;2023-02-03T10:28:36;97698.81;;;4.41;100.00
57628;BME280;43451;49.060;10.616;2023-02-03T10:31:12;97704.97;;;4.41;100.00
57628;BME280;43451;49.060;10.616;2023-02-03T10:33:40;97703.38;;;4.40;100.00
57628;BME280;43451;49.060;10.616;2023-02-03T10:36:18;97695.00;;;4.42;100.00
57628;BME280;43451;49.060;10.616;2023-02-03T10:39:14;97679.91;;;4.50;100.00
57628;BME280;43451;49.060;10.616;2023-02-03T10:41:42;97664.41;;;4.68;100.00
57628;BME280;43451;49.060;10.616;2023-02-03T10:44:11;97668.28;;;4.79;100.00
57628;BME280;43451;49.060;10.616;2023-02-03T10:46:39;97653.31;;;4.69;100.00
57628;BME280;43451;49.060;10.616;2023-02-03T10:49:07;97661.91;;;4.62;100.00
57628;BME280;43451;49.060;10.616;2023-02-03T10:51:39;97653.50;;;4.85;100.00
57628;BME280;43451;49.060;10.616;2023-02-03T10:54:31;97663.16;;;4.86;100.00
57628;BME280;43451;49.060;10.616;2023-02-03T10:57:03;97652.72;;;4.84;100.00
57628;BME280;43451;49.060;10.616;2023-02-03T10:59:33;97627.53;;;4.68;100.00
57628;BME280;43451;49.060;10.616;2023-02-03T11:02:06;97632.31;;;4.83;100.00
57628;BME280;43451;49.060;10.616;2023-02-03T11:04:32;97639.19;;;4.93;100.00
57628;BME280;43451;49.060;10.616;2023-02-03T11:07:06;97642.66;;;4.94;100.00
57628;BME280;43451;49.060;10.616;2023-02-03T11:09:45;97635.47;;;4.98;100.00
57628;BME280;43451;49.060;10.616;2023-02-03T11:12:13;97632.72;;;5.06;100.00
57628;BME280;43451;49.060;10.616;2023-02-03T11:14:41;97631.63;;;5.20;100.00
57628;BME280;43451;49.060;10.616;2023-02-03T11:17:14;97629.47;;;5.13;100.00
57628;BME280;43451;49.060;10.616;2023-02-03T11:19:43;97613.78;;;5.15;100.00
57628;BME280;43451;49.060;10.616;2023-02-03T11:22:09;97594.78;;;4.99;100.00
57628;BME280;43451;49.060;10.616;2023-02-03T11:24:39;97610.50;;;5.09;100.00
57628;BME280;43451;49.060;10.616;2023-02-03T11:27:13;97604.69;;;5.20;100.00
57628;BME280;43451;49.060;10.616;2023-02-03T11:29:48;97594.03;;;5.23;100.00
57628;BME280;43451;49.060;10.616;2023-02-03T11:32:23;97589.13;;;5.38;100.00
57628;BME280;43451;49.060;10.616;2023-02-03T11:34:56;97582.59;;;5.51;100.00
57628;BME280;43451;49.060;10.616;2023-02-03T11:42:31;97590.19;;;5.12;100.00
57628;BME280;43451;49.060;10.616;2023-02-03T11:48:01;97574.63;;;5.30;100.00
57628;BME280;43451;49.060;10.616;2023-02-03T11:50:44;97580.81;;;5.30;100.00
57628;BME280;43451;49.060;10.616;2023-02-03T11:59:49;97552.50;;;5.12;100.00
57628;BME280;43451;49.060;10.616;2023-02-03T12:02:30;97552.84;;;5.35;100.00
57628;BME280;43451;49.060;10.616;2023-02-03T12:10:59;97546.31;;;5.11;100.00
57628;BME280;43451;49.060;10.616;2023-02-03T12:19:02;97530.38;;;5.06;100.00
57628;BME280;43451;49.060;10.616;2023-02-03T12:21:45;97529.59;;;5.06;100.00
57628;BME280;43451;49.060;10.616;2023-02-03T12:27:18;97528.13;;;5.08;100.00
57628;BME280;43451;49.060;10.616;2023-02-03T12:29:52;97519.59;;;5.06;100.00
57628;BME280;43451;49.060;10.616;2023-02-03T12:38:38;97524.22;;;5.06;100.00
57628;BME280;43451;49.060;10.616;2023-02-03T12:41:13;97522.63;;;5.05;100.00
57628;BME280;43451;49.060;10.616;2023-02-03T12:43:48;97531.94;;;4.95;100.00
57628;BME280;43451;49.060;10.616;2023-02-03T12:46:20;97520.03;;;4.96;100.00
57628;BME280;43451;49.060;10.616;2023-02-03T12:48:58;97518.47;;;4.95;100.00
57628;BME280;43451;49.060;10.616;2023-02-03T12:54:30;97506.59;;;5.08;100.00
57628;BME280;43451;49.060;10.616;2023-02-03T12:57:11;97497.16;;;5.02;100.00
57628;BME280;43451;49.060;10.616;2023-02-03T12:59:40;97491.31;;;5.00;100.00
57628;BME280;43451;49.060;10.616;2023-02-03T13:02:17;97484.16;;;4.92;100.00
57628;BME280;43451;49.060;10.616;2023-02-03T13:04:51;97468.41;;;4.82;100.00
57628;BME280;43451;49.060;10.616;2023-02-03T13:07:29;97446.88;;;4.94;100.00
57628;BME280;43451;49.060;10.616;2023-02-03T13:10:05;97431.97;;;4.97;100.00
57628;BME280;43451;49.060;10.616;2023-02-03T13:12:44;97442.97;;;4.92;100.00
57628;BME280;43451;49.060;10.616;2023-02-03T13:18:00;97432.31;;;4.83;100.00
57628;BME280;43451;49.060;10.616;2023-02-03T13:20:30;97421.97;;;4.85;100.00
57628;BME280;43451;49.060;10.616;2023-02-03T13:22:58;97419.75;;;4.87;100.00
57628;BME280;43451;49.060;10.616;2023-02-03T13:26:35;97418.28;;;4.89;100.00
57628;BME280;43451;49.060;10.616;2023-02-03T13:29:19;97406.28;;;4.99;100.00
57628;BME280;43451;49.060;10.616;2023-02-03T13:43:02;97441.84;;;4.93;100.00
57628;BME280;43451;49.060;10.616;2023-02-03T13:45:41;97466.78;;;5.14;100.00
57628;BME280;43451;49.060;10.616;2023-02-03T13:48:14;97466.31;;;5.00;100.00
57628;BME280;43451;49.060;10.616;2023-02-03T13:50:42;97464.28;;;4.84;100.00
57628;BME280;43451;49.060;10.616;2023-02-03T13:53:22;97449.72;;;4.85;100.00
57628;BME280;43451;49.060;10.616;2023-02-03T13:58:21;97435.31;;;4.81;100.00
57628;BME280;43451;49.060;10.616;2023-02-03T14:05:48;97418.06;;;4.82;100.00
57628;BME280;43451;49.060;10.616;2023-02-03T14:13:54;97409.88;;;4.79;100.00
57628;BME280;43451;49.060;10.616;2023-02-03T14:16:49;97431.66;;;4.86;100.00
57628;BME280;43451;49.060;10.616;2023-02-03T14:21:51;97438.59;;;4.99;100.00
57628;BME280;43451;49.060;10.616;2023-02-03T14:24:18;97432.06;;;4.88;100.00
57628;BME280;43451;49.060;10.616;2023-02-03T14:26:54;97424.47;;;4.90;100.00
57628;BME280;43451;49.060;10.616;2023-02-03T14:31:55;97449.59;;;4.70;100.00
57628;BME280;43451;49.060;10.616;2023-02-03T14:37:20;97444.31;;;4.85;100.00
57628;BME280;43451;49.060;10.616;2023-02-03T14:48:09;97432.31;;;4.71;100.00
57628;BME280;43451;49.060;10.616;2023-02-03T14:56:48;97469.88;;;4.67;100.00
57628;BME280;43451;49.060;10.616;2023-02-03T15:02:12;97454.63;;;4.71;100.00
57628;BME280;43451;49.060;10.616;2023-02-03T15:04:39;97444.41;;;4.64;100.00
57628;BME280;43451;49.060;10.616;2023-02-03T15:07:05;97444.41;;;4.77;100.00
57628;BME280;43451;49.060;10.616;2023-02-03T15:09:43;97447.66;;;4.70;100.00
57628;BME280;43451;49.060;10.616;2023-02-03T15:12:25;97453.38;;;4.69;100.00
57628;BME280;43451;49.060;10.616;2023-02-03T15:14:52;97450.91;;;4.63;100.00
57628;BME280;43451;49.060;10.616;2023-02-03T15:17:26;97452.94;;;4.67;100.00
57628;BME280;43451;49.060;10.616;2023-02-03T15:19:51;97486.44;;;4.57;100.00